sensor_id;sensor_type;location;lat;lon;timestamp;temperature;humidity
6110;DHT22;3085;49.444;11.054;2024-02-26T00:01:44;6.60;99.90
6110;DHT22;3085;49.444;11.054;2024-02-26T00:04:11;6.50;99.90
6110;DHT22;3085;49.444;11.054;2024-02-26T00:06:40;6.50;99.90
6110;DHT22;3085;49.444;11.054;2024-02-26T00:09:06;6.50;99.90
6110;DHT22;3085;49.444;11.054;2024-02-26T00:11:33;6.50;99.90
6110;DHT22;3085;49.444;11.054;2024-02-26T00:14:00;6.50;99.90
6110;DHT22;3085;49.444;11.054;2024-02-26T00:16:27;6.50;99.90
6110;DHT22;3085;49.444;11.054;2024-02-26T00:18:53;6.50;99.90
6110;DHT22;3085;49.444;11.054;2024-02-26T00:21:20;6.60;99.90
6110;DHT22;3085;49.444;11.054;2024-02-26T00:23:49;6.60;99.90
6110;DHT22;3085;49.444;11.054;2024-02-26T00:26:15;6.60;99.90
6110;DHT22;3085;49.444;11.054;2024-02-26T00:28:43;6.50;99.90
6110;DHT22;3085;49.444;11.054;2024-02-26T00:31:09;6.30;99.90
6110;DHT22;3085;49.444;11.054;2024-02-26T00:33:37;6.40;99.90
6110;DHT22;3085;49.444;11.054;2024-02-26T00:36:04;6.30;99.90
6110;DHT22;3085;49.444;11.054;2024-02-26T00:38:31;6.30;99.90
6110;DHT22;3085;49.444;11.054;2024-02-26T00:40:59;6.40;99.90
6110;DHT22;3085;49.444;11.054;2024-02-26T00:43:26;6.40;99.90
6110;DHT22;3085;49.444;11.054;2024-02-26T00:45:53;6.30;99.90
6110;DHT22;3085;49.444;11.054;2024-02-26T00:48:19;6.30;99.90
6110;DHT22;3085;49.444;11.054;2024-02-26T00:50:46;6.70;99.90
6110;DHT22;3085;49.444;11.054;2024-02-26T00:53:13;6.20;99.90
6110;DHT22;3085;49.444;11.054;2024-02-26T00:55:39;6.10;99.90
6110;DHT22;3085;49.444;11.054;2024-02-26T00:58:07;6.00;99.90
6110;DHT22;3085;49.444;11.054;2024-02-26T01:00:34;6.00;99.90
6110;DHT22;3085;49.444;11.054;2024-02-26T01:03:01;5.90;99.90
6110;DHT22;3085;49.444;11.054;2024-02-26T01:05:28;6.00;99.90
6110;DHT22;3085;49.444;11.054;2024-02-26T01:07:55;6.00;99.90
6110;DHT22;3085;49.444;11.054;2024-02-26T01:10:22;5.90;99.90
6110;DHT22;3085;49.444;11.054;2024-02-26T01:12:48;6.10;99.90
6110;DHT22;3085;49.444;11.054;2024-02-26T01:15:16;6.10;99.90
6110;DHT22;3085;49.444;11.054;2024-02-26T01:17:44;6.20;99.90
6110;DHT22;3085;49.444;11.054;2024-02-26T01:20:11;6.20;99.90
6110;DHT22;3085;49.444;11.054;2024-02-26T01:22:37;6.20;99.90
6110;DHT22;3085;49.444;11.054;2024-02-26T01:25:06;6.20;99.90
6110;DHT22;3085;49.444;11.054;2024-02-26T01:27:35;6.20;99.90
6110;DHT22;3085;49.444;11.054;2024-02-26T01:30:02;6.20;99.90
6110;DHT22;3085;49.444;11.054;2024-02-26T01:32:31;6.10;99.90
6110;DHT22;3085;49.444;11.054;2024-02-26T01:34:58;5.90;99.90
6110;DHT22;3085;49.444;11.054;2024-02-26T01:37:24;6.00;99.90
6110;DHT22;3085;49.444;11.054;2024-02-26T01:39:51;5.90;99.90
6110;DHT22;3085;49.444;11.054;2024-02-26T01:42:18;5.70;99.90
6110;DHT22;3085;49.444;11.054;2024-02-26T01:44:44;5.70;99.90
6110;DHT22;3085;49.444;11.054;2024-02-26T01:47:12;5.70;99.90
6110;DHT22;3085;49.444;11.054;2024-02-26T01:49:41;5.60;99.90
6110;DHT22;3085;49.444;11.054;2024-02-26T01:52:09;5.60;99.90
6110;DHT22;3085;49.444;11.054;2024-02-26T01:54:37;5.60;99.90
6110;DHT22;3085;49.444;11.054;2024-02-26T01:57:05;5.70;99.90
6110;DHT22;3085;49.444;11.054;2024-02-26T01:59:33;5.70;99.90
6110;DHT22;3085;49.444;11.054;2024-02-26T02:02:02;5.70;99.90
6110;DHT22;3085;49.444;11.054;2024-02-26T02:04:30;5.60;99.90
6110;DHT22;3085;49.444;11.054;2024-02-26T02:07:00;5.60;99.90
6110;DHT22;3085;49.444;11.054;2024-02-26T02:09:27;5.60;99.90
6110;DHT22;3085;49.444;11.054;2024-02-26T02:11:54;5.70;99.90
6110;DHT22;3085;49.444;11.054;2024-02-26T02:14:21;5.70;99.90
6110;DHT22;3085;49.444;11.054;2024-02-26T02:16:48;5.80;99.90
6110;DHT22;3085;49.444;11.054;2024-02-26T02:19:14;5.90;99.90
6110;DHT22;3085;49.444;11.054;2024-02-26T02:21:42;5.90;99.90
6110;DHT22;3085;49.444;11.054;2024-02-26T02:24:09;5.90;99.90
6110;DHT22;3085;49.444;11.054;2024-02-26T02:26:36;5.90;99.90
6110;DHT22;3085;49.444;11.054;2024-02-26T02:29:03;5.90;99.90
6110;DHT22;3085;49.444;11.054;2024-02-26T02:31:30;6.00;99.90
6110;DHT22;3085;49.444;11.054;2024-02-26T02:33:57;6.10;99.90
6110;DHT22;3085;49.444;11.054;2024-02-26T02:36:24;6.20;99.90
6110;DHT22;3085;49.444;11.054;2024-02-26T02:38:52;6.40;99.90
6110;DHT22;3085;49.444;11.054;2024-02-26T02:41:19;6.20;99.90
6110;DHT22;3085;49.444;11.054;2024-02-26T02:43:47;6.20;99.90
6110;DHT22;3085;49.444;11.054;2024-02-26T02:46:13;6.20;99.90
6110;DHT22;3085;49.444;11.054;2024-02-26T02:48:41;6.30;99.90
6110;DHT22;3085;49.444;11.054;2024-02-26T02:51:09;6.30;99.90
6110;DHT22;3085;49.444;11.054;2024-02-26T02:53:35;6.30;99.90
6110;DHT22;3085;49.444;11.054;2024-02-26T02:56:04;6.30;99.90
6110;DHT22;3085;49.444;11.054;2024-02-26T02:58:31;6.30;99.90
6110;DHT22;3085;49.444;11.054;2024-02-26T03:00:57;6.30;99.90
6110;DHT22;3085;49.444;11.054;2024-02-26T03:03:25;6.30;99.90
6110;DHT22;3085;49.444;11.054;2024-02-26T03:05:54;6.30;99.90
6110;DHT22;3085;49.444;11.054;2024-02-26T03:08:20;6.30;99.90
6110;DHT22;3085;49.444;11.054;2024-02-26T03:10:47;6.40;99.90
6110;DHT22;3085;49.444;11.054;2024-02-26T03:13:15;6.40;99.90
6110;DHT22;3085;49.444;11.054;2024-02-26T03:15:42;6.40;99.90
6110;DHT22;3085;49.444;11.054;2024-02-26T03:18:08;6.30;99.90
6110;DHT22;3085;49.444;11.054;2024-02-26T03:20:35;6.40;99.90
6110;DHT22;3085;49.444;11.054;2024-02-26T03:23:02;6.30;99.90
6110;DHT22;3085;49.444;11.054;2024-02-26T03:25:29;6.40;99.90
6110;DHT22;3085;49.444;11.054;2024-02-26T03:27:55;6.30;99.90
6110;DHT22;3085;49.444;11.054;2024-02-26T03:30:23;6.40;99.90
6110;DHT22;3085;49.444;11.054;2024-02-26T03:32:50;6.40;99.90
6110;DHT22;3085;49.444;11.054;2024-02-26T03:35:17;6.40;99.90
6110;DHT22;3085;49.444;11.054;2024-02-26T03:37:45;6.40;99.90
6110;DHT22;3085;49.444;11.054;2024-02-26T03:40:13;6.40;99.90
6110;DHT22;3085;49.444;11.054;2024-02-26T03:42:40;6.40;99.90
6110;DHT22;3085;49.444;11.054;2024-02-26T03:45:07;6.50;99.90
6110;DHT22;3085;49.444;11.054;2024-02-26T03:47:37;6.40;99.90
6110;DHT22;3085;49.444;11.054;2024-02-26T03:50:04;6.30;99.90
6110;DHT22;3085;49.444;11.054;2024-02-26T03:52:32;6.40;99.90
6110;DHT22;3085;49.444;11.054;2024-02-26T03:54:59;6.30;99.90
6110;DHT22;3085;49.444;11.054;2024-02-26T03:57:26;6.30;99.90
6110;DHT22;3085;49.444;11.054;2024-02-26T03:59:52;6.40;99.90
6110;DHT22;3085;49.444;11.054;2024-02-26T04:02:19;6.30;99.90
6110;DHT22;3085;49.444;11.054;2024-02-26T04:04:47;6.40;99.90
6110;DHT22;3085;49.444;11.054;2024-02-26T04:07:14;6.40;99.90
6110;DHT22;3085;49.444;11.054;2024-02-26T04:09:40;6.30;99.90
6110;DHT22;3085;49.444;11.054;2024-02-26T04:12:09;6.40;99.90
6110;DHT22;3085;49.444;11.054;2024-02-26T04:14:35;6.40;99.90
6110;DHT22;3085;49.444;11.054;2024-02-26T04:17:02;6.40;99.90
6110;DHT22;3085;49.444;11.054;2024-02-26T04:19:29;6.40;99.90
6110;DHT22;3085;49.444;11.054;2024-02-26T04:21:57;6.40;99.90
6110;DHT22;3085;49.444;11.054;2024-02-26T04:24:24;6.40;99.90
6110;DHT22;3085;49.444;11.054;2024-02-26T04:26:51;6.40;99.90
6110;DHT22;3085;49.444;11.054;2024-02-26T04:29:17;6.40;99.90
6110;DHT22;3085;49.444;11.054;2024-02-26T04:31:44;6.40;99.90
6110;DHT22;3085;49.444;11.054;2024-02-26T04:34:11;6.40;99.90
6110;DHT22;3085;49.444;11.054;2024-02-26T04:36:38;6.30;99.90
6110;DHT22;3085;49.444;11.054;2024-02-26T04:39:06;6.30;99.90
6110;DHT22;3085;49.444;11.054;2024-02-26T04:41:32;6.30;99.90
6110;DHT22;3085;49.444;11.054;2024-02-26T04:43:59;6.30;99.90
6110;DHT22;3085;49.444;11.054;2024-02-26T04:46:26;6.20;99.90
6110;DHT22;3085;49.444;11.054;2024-02-26T04:48:53;6.20;99.90
6110;DHT22;3085;49.444;11.054;2024-02-26T04:51:20;6.10;99.90
6110;DHT22;3085;49.444;11.054;2024-02-26T04:53:47;6.00;99.90
6110;DHT22;3085;49.444;11.054;2024-02-26T04:56:15;5.90;99.90
6110;DHT22;3085;49.444;11.054;2024-02-26T04:58:42;6.00;99.90
6110;DHT22;3085;49.444;11.054;2024-02-26T05:01:08;6.10;99.90
6110;DHT22;3085;49.444;11.054;2024-02-26T05:03:36;6.10;99.90
6110;DHT22;3085;49.444;11.054;2024-02-26T05:06:03;6.00;99.90
6110;DHT22;3085;49.444;11.054;2024-02-26T05:08:30;5.90;99.90
6110;DHT22;3085;49.444;11.054;2024-02-26T05:10:59;5.90;99.90
6110;DHT22;3085;49.444;11.054;2024-02-26T05:13:27;6.00;99.90
6110;DHT22;3085;49.444;11.054;2024-02-26T05:15:53;6.50;99.90
6110;DHT22;3085;49.444;11.054;2024-02-26T05:18:20;5.90;99.90
6110;DHT22;3085;49.444;11.054;2024-02-26T05:20:48;5.90;99.90
6110;DHT22;3085;49.444;11.054;2024-02-26T05:23:14;5.90;99.90
6110;DHT22;3085;49.444;11.054;2024-02-26T05:25:41;5.90;99.90
6110;DHT22;3085;49.444;11.054;2024-02-26T05:28:08;5.90;99.90
6110;DHT22;3085;49.444;11.054;2024-02-26T05:30:36;5.90;99.90
6110;DHT22;3085;49.444;11.054;2024-02-26T05:33:05;6.00;99.90
6110;DHT22;3085;49.444;11.054;2024-02-26T05:35:32;6.00;99.90
6110;DHT22;3085;49.444;11.054;2024-02-26T05:37:58;6.10;99.90
6110;DHT22;3085;49.444;11.054;2024-02-26T05:40:25;6.10;99.90
6110;DHT22;3085;49.444;11.054;2024-02-26T05:42:51;6.20;99.90
6110;DHT22;3085;49.444;11.054;2024-02-26T05:45:18;6.10;99.90
6110;DHT22;3085;49.444;11.054;2024-02-26T05:47:46;6.20;99.90
6110;DHT22;3085;49.444;11.054;2024-02-26T05:50:13;6.30;99.90
6110;DHT22;3085;49.444;11.054;2024-02-26T05:52:41;6.30;99.90
6110;DHT22;3085;49.444;11.054;2024-02-26T05:55:08;6.40;99.90
6110;DHT22;3085;49.444;11.054;2024-02-26T05:57:36;6.30;99.90
6110;DHT22;3085;49.444;11.054;2024-02-26T06:00:03;6.40;99.90
6110;DHT22;3085;49.444;11.054;2024-02-26T06:02:30;6.40;99.90
6110;DHT22;3085;49.444;11.054;2024-02-26T06:04:58;6.40;99.90
6110;DHT22;3085;49.444;11.054;2024-02-26T06:07:25;6.30;99.90
6110;DHT22;3085;49.444;11.054;2024-02-26T06:09:51;6.40;99.90
6110;DHT22;3085;49.444;11.054;2024-02-26T06:12:18;6.30;99.90
6110;DHT22;3085;49.444;11.054;2024-02-26T06:14:45;6.40;99.90
6110;DHT22;3085;49.444;11.054;2024-02-26T06:17:12;6.50;99.90
6110;DHT22;3085;49.444;11.054;2024-02-26T06:19:39;6.40;99.90
6110;DHT22;3085;49.444;11.054;2024-02-26T06:22:07;6.50;99.90
6110;DHT22;3085;49.444;11.054;2024-02-26T06:24:34;6.40;99.90
6110;DHT22;3085;49.444;11.054;2024-02-26T06:27:00;6.50;99.90
6110;DHT22;3085;49.444;11.054;2024-02-26T06:29:27;6.40;99.90
6110;DHT22;3085;49.444;11.054;2024-02-26T06:31:54;6.50;99.90
6110;DHT22;3085;49.444;11.054;2024-02-26T06:34:23;6.50;99.90
6110;DHT22;3085;49.444;11.054;2024-02-26T06:36:49;6.50;99.90
6110;DHT22;3085;49.444;11.054;2024-02-26T06:39:17;6.40;99.90
6110;DHT22;3085;49.444;11.054;2024-02-26T06:41:44;6.40;99.90
6110;DHT22;3085;49.444;11.054;2024-02-26T06:44:12;6.40;99.90
6110;DHT22;3085;49.444;11.054;2024-02-26T06:46:39;7.20;99.90
6110;DHT22;3085;49.444;11.054;2024-02-26T06:49:06;6.50;99.90
6110;DHT22;3085;49.444;11.054;2024-02-26T06:51:33;6.50;99.90
6110;DHT22;3085;49.444;11.054;2024-02-26T06:53:59;6.50;99.90
6110;DHT22;3085;49.444;11.054;2024-02-26T06:56:27;6.60;99.90
6110;DHT22;3085;49.444;11.054;2024-02-26T06:58:54;6.60;99.90
6110;DHT22;3085;49.444;11.054;2024-02-26T07:01:21;6.60;99.90
6110;DHT22;3085;49.444;11.054;2024-02-26T07:06:17;6.60;99.90
6110;DHT22;3085;49.444;11.054;2024-02-26T07:08:44;6.60;99.90
6110;DHT22;3085;49.444;11.054;2024-02-26T07:11:11;6.70;99.90
6110;DHT22;3085;49.444;11.054;2024-02-26T07:13:39;6.60;99.90
6110;DHT22;3085;49.444;11.054;2024-02-26T07:16:08;6.60;99.90
6110;DHT22;3085;49.444;11.054;2024-02-26T07:18:35;6.60;99.90
6110;DHT22;3085;49.444;11.054;2024-02-26T07:21:02;6.60;99.90
6110;DHT22;3085;49.444;11.054;2024-02-26T07:23:29;6.50;99.90
6110;DHT22;3085;49.444;11.054;2024-02-26T07:25:56;6.50;99.90
6110;DHT22;3085;49.444;11.054;2024-02-26T07:28:23;6.40;99.90
6110;DHT22;3085;49.444;11.054;2024-02-26T07:30:51;6.60;99.90
6110;DHT22;3085;49.444;11.054;2024-02-26T07:33:18;6.50;99.90
6110;DHT22;3085;49.444;11.054;2024-02-26T07:35:45;6.50;99.90
6110;DHT22;3085;49.444;11.054;2024-02-26T07:38:11;6.60;99.90
6110;DHT22;3085;49.444;11.054;2024-02-26T07:40:39;6.60;99.90
6110;DHT22;3085;49.444;11.054;2024-02-26T07:43:06;6.70;99.90
6110;DHT22;3085;49.444;11.054;2024-02-26T07:45:33;6.80;99.90
6110;DHT22;3085;49.444;11.054;2024-02-26T07:48:03;6.80;99.90
6110;DHT22;3085;49.444;11.054;2024-02-26T07:50:30;6.80;99.90
6110;DHT22;3085;49.444;11.054;2024-02-26T07:52:56;6.90;99.90
6110;DHT22;3085;49.444;11.054;2024-02-26T07:55:24;6.90;99.90
6110;DHT22;3085;49.444;11.054;2024-02-26T07:57:50;7.00;99.90
6110;DHT22;3085;49.444;11.054;2024-02-26T08:00:18;7.00;99.90
6110;DHT22;3085;49.444;11.054;2024-02-26T08:02:45;7.10;99.90
6110;DHT22;3085;49.444;11.054;2024-02-26T08:05:13;7.10;99.90
6110;DHT22;3085;49.444;11.054;2024-02-26T08:07:40;7.10;99.90
6110;DHT22;3085;49.444;11.054;2024-02-26T08:10:08;7.10;99.90
6110;DHT22;3085;49.444;11.054;2024-02-26T08:12:34;7.10;99.90
6110;DHT22;3085;49.444;11.054;2024-02-26T08:15:01;7.00;99.90
6110;DHT22;3085;49.444;11.054;2024-02-26T08:17:28;7.20;99.90
6110;DHT22;3085;49.444;11.054;2024-02-26T08:19:55;7.10;99.90
6110;DHT22;3085;49.444;11.054;2024-02-26T08:22:23;7.30;99.90
6110;DHT22;3085;49.444;11.054;2024-02-26T08:24:50;7.20;99.90
6110;DHT22;3085;49.444;11.054;2024-02-26T08:27:17;7.30;99.90
6110;DHT22;3085;49.444;11.054;2024-02-26T08:29:44;7.30;99.90
6110;DHT22;3085;49.444;11.054;2024-02-26T08:32:10;7.30;99.90
6110;DHT22;3085;49.444;11.054;2024-02-26T08:34:37;7.40;99.90
6110;DHT22;3085;49.444;11.054;2024-02-26T08:37:04;7.40;99.90
6110;DHT22;3085;49.444;11.054;2024-02-26T08:39:33;7.40;99.90
6110;DHT22;3085;49.444;11.054;2024-02-26T08:42:00;7.50;99.90
6110;DHT22;3085;49.444;11.054;2024-02-26T08:44:27;7.50;99.90
6110;DHT22;3085;49.444;11.054;2024-02-26T08:46:53;7.50;99.90
6110;DHT22;3085;49.444;11.054;2024-02-26T08:49:20;7.50;99.90
6110;DHT22;3085;49.444;11.054;2024-02-26T08:51:48;7.60;99.90
6110;DHT22;3085;49.444;11.054;2024-02-26T08:54:15;7.70;99.90
6110;DHT22;3085;49.444;11.054;2024-02-26T08:56:43;7.60;99.90
6110;DHT22;3085;49.444;11.054;2024-02-26T08:59:10;7.60;99.90
6110;DHT22;3085;49.444;11.054;2024-02-26T09:01:36;7.60;99.90
6110;DHT22;3085;49.444;11.054;2024-02-26T09:04:03;7.60;99.90
6110;DHT22;3085;49.444;11.054;2024-02-26T09:06:30;7.60;99.90
6110;DHT22;3085;49.444;11.054;2024-02-26T09:08:57;7.70;99.90
6110;DHT22;3085;49.444;11.054;2024-02-26T09:11:23;7.80;99.90
6110;DHT22;3085;49.444;11.054;2024-02-26T09:13:51;7.90;99.90
6110;DHT22;3085;49.444;11.054;2024-02-26T09:16:18;7.90;99.90
6110;DHT22;3085;49.444;11.054;2024-02-26T09:18:45;7.90;99.90
6110;DHT22;3085;49.444;11.054;2024-02-26T09:21:12;8.00;99.90
6110;DHT22;3085;49.444;11.054;2024-02-26T09:23:39;8.20;99.90
6110;DHT22;3085;49.444;11.054;2024-02-26T09:26:06;8.30;99.90
6110;DHT22;3085;49.444;11.054;2024-02-26T09:28:32;8.50;99.90
6110;DHT22;3085;49.444;11.054;2024-02-26T09:31:04;8.50;99.90
6110;DHT22;3085;49.444;11.054;2024-02-26T09:33:30;8.60;99.90
6110;DHT22;3085;49.444;11.054;2024-02-26T09:35:57;8.70;99.90
6110;DHT22;3085;49.444;11.054;2024-02-26T09:38:24;8.70;99.90
6110;DHT22;3085;49.444;11.054;2024-02-26T09:40:51;8.60;99.90
6110;DHT22;3085;49.444;11.054;2024-02-26T09:43:21;8.70;99.90
6110;DHT22;3085;49.444;11.054;2024-02-26T09:45:50;8.70;99.90
6110;DHT22;3085;49.444;11.054;2024-02-26T09:48:18;8.80;99.90
6110;DHT22;3085;49.444;11.054;2024-02-26T09:50:45;8.70;99.90
6110;DHT22;3085;49.444;11.054;2024-02-26T09:53:12;8.70;99.90
6110;DHT22;3085;49.444;11.054;2024-02-26T09:55:40;8.60;99.90
6110;DHT22;3085;49.444;11.054;2024-02-26T09:58:07;8.70;99.90
6110;DHT22;3085;49.444;11.054;2024-02-26T10:00:37;8.60;99.90
6110;DHT22;3085;49.444;11.054;2024-02-26T10:03:05;8.90;99.90
6110;DHT22;3085;49.444;11.054;2024-02-26T10:05:34;8.80;99.90
6110;DHT22;3085;49.444;11.054;2024-02-26T10:08:01;8.80;99.90
6110;DHT22;3085;49.444;11.054;2024-02-26T10:10:29;8.80;99.90
6110;DHT22;3085;49.444;11.054;2024-02-26T10:12:57;8.90;99.90
6110;DHT22;3085;49.444;11.054;2024-02-26T10:15:24;8.90;99.90
6110;DHT22;3085;49.444;11.054;2024-02-26T10:17:51;8.90;99.90
6110;DHT22;3085;49.444;11.054;2024-02-26T10:20:18;9.20;99.90
6110;DHT22;3085;49.444;11.054;2024-02-26T10:22:48;9.10;99.90
6110;DHT22;3085;49.444;11.054;2024-02-26T10:25:16;9.20;99.90
6110;DHT22;3085;49.444;11.054;2024-02-26T10:27:42;9.30;99.90
6110;DHT22;3085;49.444;11.054;2024-02-26T10:30:20;9.30;99.90
6110;DHT22;3085;49.444;11.054;2024-02-26T10:32:48;9.40;99.90
6110;DHT22;3085;49.444;11.054;2024-02-26T10:35:15;9.40;99.90
6110;DHT22;3085;49.444;11.054;2024-02-26T10:37:43;9.50;99.90
6110;DHT22;3085;49.444;11.054;2024-02-26T10:40:12;9.60;99.90
6110;DHT22;3085;49.444;11.054;2024-02-26T10:42:39;9.50;99.90
6110;DHT22;3085;49.444;11.054;2024-02-26T10:45:07;9.50;99.90
6110;DHT22;3085;49.444;11.054;2024-02-26T10:47:34;9.60;99.90
6110;DHT22;3085;49.444;11.054;2024-02-26T10:50:02;9.60;99.90
6110;DHT22;3085;49.444;11.054;2024-02-26T10:52:31;9.60;99.90
6110;DHT22;3085;49.444;11.054;2024-02-26T10:55:00;9.70;99.90
6110;DHT22;3085;49.444;11.054;2024-02-26T10:57:33;9.80;99.90
6110;DHT22;3085;49.444;11.054;2024-02-26T11:00:00;9.80;99.90
6110;DHT22;3085;49.444;11.054;2024-02-26T11:02:30;9.90;99.90
6110;DHT22;3085;49.444;11.054;2024-02-26T11:04:58;10.00;99.90
6110;DHT22;3085;49.444;11.054;2024-02-26T11:07:25;10.00;99.90
6110;DHT22;3085;49.444;11.054;2024-02-26T11:09:53;10.10;99.90
6110;DHT22;3085;49.444;11.054;2024-02-26T11:12:22;10.10;99.90
6110;DHT22;3085;49.444;11.054;2024-02-26T11:14:50;10.20;99.90
6110;DHT22;3085;49.444;11.054;2024-02-26T11:17:22;10.40;99.90
6110;DHT22;3085;49.444;11.054;2024-02-26T11:19:50;10.30;99.90
6110;DHT22;3085;49.444;11.054;2024-02-26T11:22:18;10.30;99.90
6110;DHT22;3085;49.444;11.054;2024-02-26T11:24:47;10.40;99.90
6110;DHT22;3085;49.444;11.054;2024-02-26T11:27:17;10.40;99.90
6110;DHT22;3085;49.444;11.054;2024-02-26T11:29:48;10.60;99.90
6110;DHT22;3085;49.444;11.054;2024-02-26T11:32:17;10.70;99.90
6110;DHT22;3085;49.444;11.054;2024-02-26T11:34:44;10.80;99.90
6110;DHT22;3085;49.444;11.054;2024-02-26T11:37:12;10.80;99.90
6110;DHT22;3085;49.444;11.054;2024-02-26T11:39:40;10.80;99.90
6110;DHT22;3085;49.444;11.054;2024-02-26T11:42:07;10.80;99.90
6110;DHT22;3085;49.444;11.054;2024-02-26T11:44:35;10.90;99.90
6110;DHT22;3085;49.444;11.054;2024-02-26T11:47:10;10.90;99.90
6110;DHT22;3085;49.444;11.054;2024-02-26T11:49:38;10.90;99.90
6110;DHT22;3085;49.444;11.054;2024-02-26T11:52:06;10.90;99.90
6110;DHT22;3085;49.444;11.054;2024-02-26T11:54:43;11.00;99.90
6110;DHT22;3085;49.444;11.054;2024-02-26T11:57:21;11.00;99.90
6110;DHT22;3085;49.444;11.054;2024-02-26T11:59:48;11.20;99.90
6110;DHT22;3085;49.444;11.054;2024-02-26T12:02:40;11.20;99.90
6110;DHT22;3085;49.444;11.054;2024-02-26T12:05:10;11.30;99.90
6110;DHT22;3085;49.444;11.054;2024-02-26T12:07:40;11.30;99.90
6110;DHT22;3085;49.444;11.054;2024-02-26T12:10:24;11.40;99.90
6110;DHT22;3085;49.444;11.054;2024-02-26T12:12:58;11.40;99.90
6110;DHT22;3085;49.444;11.054;2024-02-26T12:15:31;11.50;99.90
6110;DHT22;3085;49.444;11.054;2024-02-26T12:17:59;11.60;99.90
6110;DHT22;3085;49.444;11.054;2024-02-26T12:20:28;11.60;99.90
6110;DHT22;3085;49.444;11.054;2024-02-26T12:22:55;11.60;99.90
6110;DHT22;3085;49.444;11.054;2024-02-26T12:25:24;11.70;99.90
6110;DHT22;3085;49.444;11.054;2024-02-26T12:27:51;11.80;99.90
6110;DHT22;3085;49.444;11.054;2024-02-26T12:30:18;11.80;99.90
6110;DHT22;3085;49.444;11.054;2024-02-26T12:32:46;11.90;99.90
6110;DHT22;3085;49.444;11.054;2024-02-26T12:35:13;11.90;99.90
6110;DHT22;3085;49.444;11.054;2024-02-26T12:37:42;11.90;99.90
6110;DHT22;3085;49.444;11.054;2024-02-26T12:40:09;11.90;99.90
6110;DHT22;3085;49.444;11.054;2024-02-26T12:42:37;11.90;99.90
6110;DHT22;3085;49.444;11.054;2024-02-26T12:45:07;11.90;99.90
6110;DHT22;3085;49.444;11.054;2024-02-26T12:47:37;11.90;99.90
6110;DHT22;3085;49.444;11.054;2024-02-26T12:50:06;12.00;99.90
6110;DHT22;3085;49.444;11.054;2024-02-26T12:52:33;12.10;99.90
6110;DHT22;3085;49.444;11.054;2024-02-26T12:55:02;12.20;99.90
6110;DHT22;3085;49.444;11.054;2024-02-26T12:57:30;12.20;99.90
6110;DHT22;3085;49.444;11.054;2024-02-26T12:59:58;12.30;99.90
6110;DHT22;3085;49.444;11.054;2024-02-26T13:02:25;12.30;99.90
6110;DHT22;3085;49.444;11.054;2024-02-26T13:04:53;12.40;99.90
6110;DHT22;3085;49.444;11.054;2024-02-26T13:07:20;12.40;99.90
6110;DHT22;3085;49.444;11.054;2024-02-26T13:09:47;12.50;99.90
6110;DHT22;3085;49.444;11.054;2024-02-26T13:12:16;12.70;99.90
6110;DHT22;3085;49.444;11.054;2024-02-26T13:14:43;12.70;99.90
